sensor_id;sensor_type;location;lat;lon;timestamp;P1;durP1;ratioP1;P2;durP2;ratioP2
5898;SDS011;2975;50.956;6.962;2023-11-21T00:02:19;7.97;;;4.33;;
5898;SDS011;2975;50.956;6.962;2023-11-21T00:04:45;7.10;;;4.27;;
5898;SDS011;2975;50.956;6.962;2023-11-21T00:07:12;10.40;;;4.20;;
5898;SDS011;2975;50.956;6.962;2023-11-21T00:09:38;5.90;;;4.27;;
5898;SDS011;2975;50.956;6.962;2023-11-21T00:12:04;9.03;;;4.07;;
5898;SDS011;2975;50.956;6.962;2023-11-21T00:14:29;6.37;;;4.20;;
5898;SDS011;2975;50.956;6.962;2023-11-21T00:16:55;6.03;;;4.00;;
5898;SDS011;2975;50.956;6.962;2023-11-21T00:19:20;9.07;;;4.23;;
5898;SDS011;2975;50.956;6.962;2023-11-21T00:21:46;10.10;;;4.43;;
5898;SDS011;2975;50.956;6.962;2023-11-21T00:24:12;12.37;;;6.70;;
5898;SDS011;2975;50.956;6.962;2023-11-21T00:26:39;12.87;;;6.50;;
5898;SDS011;2975;50.956;6.962;2023-11-21T00:29:05;9.43;;;5.47;;
5898;SDS011;2975;50.956;6.962;2023-11-21T00:31:33;15.63;;;7.97;;
5898;SDS011;2975;50.956;6.962;2023-11-21T00:34:04;13.83;;;6.50;;
5898;SDS011;2975;50.956;6.962;2023-11-21T00:36:32;12.83;;;6.60;;
5898;SDS011;2975;50.956;6.962;2023-11-21T00:38:58;11.00;;;6.50;;
5898;SDS011;2975;50.956;6.962;2023-11-21T00:41:24;14.00;;;6.73;;
5898;SDS011;2975;50.956;6.962;2023-11-21T00:43:52;11.30;;;6.70;;
5898;SDS011;2975;50.956;6.962;2023-11-21T00:46:18;11.93;;;5.93;;
5898;SDS011;2975;50.956;6.962;2023-11-21T00:48:44;10.40;;;6.67;;
5898;SDS011;2975;50.956;6.962;2023-11-21T00:51:09;11.57;;;7.97;;
5898;SDS011;2975;50.956;6.962;2023-11-21T00:53:35;10.77;;;7.27;;
5898;SDS011;2975;50.956;6.962;2023-11-21T00:56:01;11.17;;;7.77;;
5898;SDS011;2975;50.956;6.962;2023-11-21T00:58:27;11.90;;;7.27;;
5898;SDS011;2975;50.956;6.962;2023-11-21T01:00:53;11.67;;;6.73;;
5898;SDS011;2975;50.956;6.962;2023-11-21T01:03:19;13.07;;;7.70;;
5898;SDS011;2975;50.956;6.962;2023-11-21T01:05:45;11.70;;;7.07;;
5898;SDS011;2975;50.956;6.962;2023-11-21T01:08:11;17.37;;;7.90;;
5898;SDS011;2975;50.956;6.962;2023-11-21T01:10:37;19.33;;;7.60;;
5898;SDS011;2975;50.956;6.962;2023-11-21T01:13:03;13.03;;;8.30;;
5898;SDS011;2975;50.956;6.962;2023-11-21T01:15:32;13.07;;;7.47;;
5898;SDS011;2975;50.956;6.962;2023-11-21T01:17:58;12.57;;;7.73;;
5898;SDS011;2975;50.956;6.962;2023-11-21T01:20:24;14.90;;;8.03;;
5898;SDS011;2975;50.956;6.962;2023-11-21T01:22:51;13.93;;;7.90;;
5898;SDS011;2975;50.956;6.962;2023-11-21T01:25:16;12.23;;;8.07;;
5898;SDS011;2975;50.956;6.962;2023-11-21T01:27:42;14.80;;;8.70;;
5898;SDS011;2975;50.956;6.962;2023-11-21T01:30:08;14.97;;;8.33;;
5898;SDS011;2975;50.956;6.962;2023-11-21T01:32:37;13.47;;;8.37;;
5898;SDS011;2975;50.956;6.962;2023-11-21T01:35:04;16.27;;;8.23;;
5898;SDS011;2975;50.956;6.962;2023-11-21T01:37:31;13.97;;;8.17;;
5898;SDS011;2975;50.956;6.962;2023-11-21T01:39:57;16.60;;;7.83;;
5898;SDS011;2975;50.956;6.962;2023-11-21T01:42:24;13.13;;;7.77;;
5898;SDS011;2975;50.956;6.962;2023-11-21T01:44:49;12.80;;;7.87;;
5898;SDS011;2975;50.956;6.962;2023-11-21T01:47:15;15.10;;;7.97;;
5898;SDS011;2975;50.956;6.962;2023-11-21T01:49:43;14.70;;;8.37;;
5898;SDS011;2975;50.956;6.962;2023-11-21T01:52:10;14.90;;;7.67;;
5898;SDS011;2975;50.956;6.962;2023-11-21T01:54:36;13.27;;;7.77;;
5898;SDS011;2975;50.956;6.962;2023-11-21T01:57:03;10.63;;;7.10;;
5898;SDS011;2975;50.956;6.962;2023-11-21T01:59:34;15.97;;;7.83;;
5898;SDS011;2975;50.956;6.962;2023-11-21T02:02:02;18.87;;;8.10;;
5898;SDS011;2975;50.956;6.962;2023-11-21T02:04:34;11.93;;;6.93;;
5898;SDS011;2975;50.956;6.962;2023-11-21T02:07:03;15.67;;;7.83;;
5898;SDS011;2975;50.956;6.962;2023-11-21T02:09:30;13.57;;;7.47;;
5898;SDS011;2975;50.956;6.962;2023-11-21T02:11:58;12.77;;;7.80;;
5898;SDS011;2975;50.956;6.962;2023-11-21T02:14:27;13.57;;;7.50;;
5898;SDS011;2975;50.956;6.962;2023-11-21T02:16:53;12.33;;;7.47;;
5898;SDS011;2975;50.956;6.962;2023-11-21T02:19:20;13.23;;;7.67;;
5898;SDS011;2975;50.956;6.962;2023-11-21T02:21:54;13.90;;;7.87;;
5898;SDS011;2975;50.956;6.962;2023-11-21T02:24:23;10.27;;;7.13;;
5898;SDS011;2975;50.956;6.962;2023-11-21T02:26:49;14.00;;;7.93;;
5898;SDS011;2975;50.956;6.962;2023-11-21T02:29:21;19.50;;;8.50;;
5898;SDS011;2975;50.956;6.962;2023-11-21T02:31:47;16.30;;;8.23;;
5898;SDS011;2975;50.956;6.962;2023-11-21T02:34:16;15.47;;;8.50;;
5898;SDS011;2975;50.956;6.962;2023-11-21T02:36:46;19.47;;;8.67;;
5898;SDS011;2975;50.956;6.962;2023-11-21T02:39:14;12.60;;;8.63;;
5898;SDS011;2975;50.956;6.962;2023-11-21T02:41:40;15.60;;;8.53;;
5898;SDS011;2975;50.956;6.962;2023-11-21T02:44:06;10.93;;;7.93;;
5898;SDS011;2975;50.956;6.962;2023-11-21T02:46:32;15.17;;;9.33;;
5898;SDS011;2975;50.956;6.962;2023-11-21T02:48:59;23.63;;;9.07;;
5898;SDS011;2975;50.956;6.962;2023-11-21T02:51:28;23.77;;;9.97;;
5898;SDS011;2975;50.956;6.962;2023-11-21T02:53:55;19.80;;;8.60;;
5898;SDS011;2975;50.956;6.962;2023-11-21T02:56:24;18.27;;;9.20;;
5898;SDS011;2975;50.956;6.962;2023-11-21T02:58:50;15.70;;;8.63;;
5898;SDS011;2975;50.956;6.962;2023-11-21T03:01:16;20.67;;;9.63;;
5898;SDS011;2975;50.956;6.962;2023-11-21T03:03:42;16.23;;;9.60;;
5898;SDS011;2975;50.956;6.962;2023-11-21T03:06:07;14.80;;;10.10;;
5898;SDS011;2975;50.956;6.962;2023-11-21T03:08:33;15.27;;;9.17;;
5898;SDS011;2975;50.956;6.962;2023-11-21T03:10:59;20.47;;;9.63;;
5898;SDS011;2975;50.956;6.962;2023-11-21T03:13:25;18.60;;;9.20;;
5898;SDS011;2975;50.956;6.962;2023-11-21T03:15:50;16.50;;;9.03;;
5898;SDS011;2975;50.956;6.962;2023-11-21T03:18:16;16.07;;;9.00;;
5898;SDS011;2975;50.956;6.962;2023-11-21T03:20:43;17.50;;;8.47;;
5898;SDS011;2975;50.956;6.962;2023-11-21T03:23:11;16.40;;;8.20;;
5898;SDS011;2975;50.956;6.962;2023-11-21T03:25:37;19.53;;;8.70;;
5898;SDS011;2975;50.956;6.962;2023-11-21T03:28:02;14.90;;;8.57;;
5898;SDS011;2975;50.956;6.962;2023-11-21T03:30:28;19.73;;;8.87;;
5898;SDS011;2975;50.956;6.962;2023-11-21T03:32:54;19.57;;;8.87;;
5898;SDS011;2975;50.956;6.962;2023-11-21T03:35:20;15.63;;;8.77;;
5898;SDS011;2975;50.956;6.962;2023-11-21T03:37:46;20.90;;;10.47;;
5898;SDS011;2975;50.956;6.962;2023-11-21T03:40:12;16.30;;;8.90;;
5898;SDS011;2975;50.956;6.962;2023-11-21T03:42:38;17.47;;;8.03;;
5898;SDS011;2975;50.956;6.962;2023-11-21T03:45:05;19.57;;;8.53;;
5898;SDS011;2975;50.956;6.962;2023-11-21T03:47:31;17.83;;;8.73;;
5898;SDS011;2975;50.956;6.962;2023-11-21T03:49:57;19.97;;;10.63;;
5898;SDS011;2975;50.956;6.962;2023-11-21T03:52:23;15.20;;;9.43;;
5898;SDS011;2975;50.956;6.962;2023-11-21T03:54:49;18.90;;;10.67;;
5898;SDS011;2975;50.956;6.962;2023-11-21T03:57:15;16.60;;;9.77;;
5898;SDS011;2975;50.956;6.962;2023-11-21T03:59:41;19.00;;;9.87;;
5898;SDS011;2975;50.956;6.962;2023-11-21T04:02:07;15.87;;;9.50;;
5898;SDS011;2975;50.956;6.962;2023-11-21T04:04:33;15.70;;;9.40;;
5898;SDS011;2975;50.956;6.962;2023-11-21T04:06:59;16.77;;;10.57;;
5898;SDS011;2975;50.956;6.962;2023-11-21T04:09:24;19.73;;;10.47;;
5898;SDS011;2975;50.956;6.962;2023-11-21T04:11:53;15.73;;;9.83;;
5898;SDS011;2975;50.956;6.962;2023-11-21T04:14:19;19.13;;;10.30;;
5898;SDS011;2975;50.956;6.962;2023-11-21T04:16:44;20.00;;;10.90;;
5898;SDS011;2975;50.956;6.962;2023-11-21T04:19:10;21.63;;;11.07;;
5898;SDS011;2975;50.956;6.962;2023-11-21T04:21:36;18.80;;;10.93;;
5898;SDS011;2975;50.956;6.962;2023-11-21T04:24:02;22.37;;;11.70;;
5898;SDS011;2975;50.956;6.962;2023-11-21T04:26:28;18.63;;;10.97;;
5898;SDS011;2975;50.956;6.962;2023-11-21T04:28:53;20.53;;;12.07;;
5898;SDS011;2975;50.956;6.962;2023-11-21T04:31:19;23.80;;;11.70;;
5898;SDS011;2975;50.956;6.962;2023-11-21T04:33:44;16.03;;;11.13;;
5898;SDS011;2975;50.956;6.962;2023-11-21T04:36:10;18.33;;;10.33;;
5898;SDS011;2975;50.956;6.962;2023-11-21T04:38:36;19.87;;;11.73;;
5898;SDS011;2975;50.956;6.962;2023-11-21T04:41:01;24.67;;;12.10;;
5898;SDS011;2975;50.956;6.962;2023-11-21T04:43:27;21.47;;;10.97;;
5898;SDS011;2975;50.956;6.962;2023-11-21T04:45:52;20.13;;;11.97;;
5898;SDS011;2975;50.956;6.962;2023-11-21T04:48:19;19.83;;;12.37;;
5898;SDS011;2975;50.956;6.962;2023-11-21T04:50:45;19.33;;;11.23;;
5898;SDS011;2975;50.956;6.962;2023-11-21T04:53:11;17.53;;;10.80;;
5898;SDS011;2975;50.956;6.962;2023-11-21T04:55:39;23.03;;;11.37;;
5898;SDS011;2975;50.956;6.962;2023-11-21T04:58:08;21.97;;;11.23;;
5898;SDS011;2975;50.956;6.962;2023-11-21T05:00:34;20.10;;;11.40;;
5898;SDS011;2975;50.956;6.962;2023-11-21T05:02:59;24.87;;;12.00;;
5898;SDS011;2975;50.956;6.962;2023-11-21T05:05:26;20.30;;;11.70;;
5898;SDS011;2975;50.956;6.962;2023-11-21T05:07:52;22.53;;;12.17;;
5898;SDS011;2975;50.956;6.962;2023-11-21T05:10:18;23.37;;;11.90;;
5898;SDS011;2975;50.956;6.962;2023-11-21T05:12:44;30.97;;;13.13;;
5898;SDS011;2975;50.956;6.962;2023-11-21T05:15:13;21.80;;;12.30;;
5898;SDS011;2975;50.956;6.962;2023-11-21T05:17:40;25.00;;;11.83;;
5898;SDS011;2975;50.956;6.962;2023-11-21T05:20:14;18.60;;;11.30;;
5898;SDS011;2975;50.956;6.962;2023-11-21T05:22:45;19.60;;;11.77;;
5898;SDS011;2975;50.956;6.962;2023-11-21T05:25:11;20.53;;;11.87;;
5898;SDS011;2975;50.956;6.962;2023-11-21T05:27:37;21.83;;;11.73;;
5898;SDS011;2975;50.956;6.962;2023-11-21T05:30:03;21.97;;;11.93;;
5898;SDS011;2975;50.956;6.962;2023-11-21T05:32:37;22.13;;;12.27;;
5898;SDS011;2975;50.956;6.962;2023-11-21T05:35:03;24.43;;;12.70;;
5898;SDS011;2975;50.956;6.962;2023-11-21T05:37:29;22.80;;;13.40;;
5898;SDS011;2975;50.956;6.962;2023-11-21T05:39:55;22.43;;;12.57;;
5898;SDS011;2975;50.956;6.962;2023-11-21T05:42:21;25.17;;;12.77;;
5898;SDS011;2975;50.956;6.962;2023-11-21T05:44:48;27.53;;;13.30;;
5898;SDS011;2975;50.956;6.962;2023-11-21T05:47:14;24.67;;;13.10;;
5898;SDS011;2975;50.956;6.962;2023-11-21T05:49:39;23.07;;;11.27;;
5898;SDS011;2975;50.956;6.962;2023-11-21T05:52:05;22.17;;;12.60;;
5898;SDS011;2975;50.956;6.962;2023-11-21T05:54:31;24.60;;;12.27;;
5898;SDS011;2975;50.956;6.962;2023-11-21T05:56:57;22.03;;;12.40;;
5898;SDS011;2975;50.956;6.962;2023-11-21T05:59:22;21.83;;;12.40;;
5898;SDS011;2975;50.956;6.962;2023-11-21T06:01:48;22.70;;;12.53;;
5898;SDS011;2975;50.956;6.962;2023-11-21T06:04:14;26.13;;;13.90;;
5898;SDS011;2975;50.956;6.962;2023-11-21T06:06:39;21.70;;;11.67;;
5898;SDS011;2975;50.956;6.962;2023-11-21T06:09:05;23.33;;;12.43;;
5898;SDS011;2975;50.956;6.962;2023-11-21T06:11:33;26.37;;;13.97;;
5898;SDS011;2975;50.956;6.962;2023-11-21T06:13:59;20.10;;;13.00;;
5898;SDS011;2975;50.956;6.962;2023-11-21T06:16:25;20.00;;;11.07;;
5898;SDS011;2975;50.956;6.962;2023-11-21T06:18:50;22.87;;;12.17;;
5898;SDS011;2975;50.956;6.962;2023-11-21T06:21:16;25.43;;;12.93;;
5898;SDS011;2975;50.956;6.962;2023-11-21T06:23:43;18.83;;;11.50;;
5898;SDS011;2975;50.956;6.962;2023-11-21T06:26:08;22.07;;;11.90;;
5898;SDS011;2975;50.956;6.962;2023-11-21T06:28:34;21.07;;;12.27;;
5898;SDS011;2975;50.956;6.962;2023-11-21T06:31:01;22.00;;;11.00;;
5898;SDS011;2975;50.956;6.962;2023-11-21T06:33:30;20.47;;;12.27;;
5898;SDS011;2975;50.956;6.962;2023-11-21T06:35:56;23.17;;;12.80;;
5898;SDS011;2975;50.956;6.962;2023-11-21T06:38:22;21.40;;;11.33;;
5898;SDS011;2975;50.956;6.962;2023-11-21T06:40:48;22.27;;;11.90;;
5898;SDS011;2975;50.956;6.962;2023-11-21T06:43:13;18.63;;;10.47;;
5898;SDS011;2975;50.956;6.962;2023-11-21T06:45:40;20.90;;;10.60;;
5898;SDS011;2975;50.956;6.962;2023-11-21T06:48:06;22.27;;;11.17;;
5898;SDS011;2975;50.956;6.962;2023-11-21T06:50:31;21.57;;;11.90;;
5898;SDS011;2975;50.956;6.962;2023-11-21T06:52:57;19.00;;;11.53;;
5898;SDS011;2975;50.956;6.962;2023-11-21T06:55:23;23.63;;;10.87;;
5898;SDS011;2975;50.956;6.962;2023-11-21T06:57:48;20.53;;;10.93;;
5898;SDS011;2975;50.956;6.962;2023-11-21T07:00:15;20.67;;;11.30;;
5898;SDS011;2975;50.956;6.962;2023-11-21T07:02:42;19.83;;;11.20;;
5898;SDS011;2975;50.956;6.962;2023-11-21T07:05:10;20.07;;;11.53;;
5898;SDS011;2975;50.956;6.962;2023-11-21T07:07:36;20.90;;;11.47;;
5898;SDS011;2975;50.956;6.962;2023-11-21T07:10:02;18.07;;;10.77;;
5898;SDS011;2975;50.956;6.962;2023-11-21T07:12:29;20.00;;;11.47;;
5898;SDS011;2975;50.956;6.962;2023-11-21T07:14:56;28.13;;;12.63;;
5898;SDS011;2975;50.956;6.962;2023-11-21T07:17:22;24.90;;;12.70;;
5898;SDS011;2975;50.956;6.962;2023-11-21T07:19:48;23.83;;;12.20;;
5898;SDS011;2975;50.956;6.962;2023-11-21T07:22:14;27.73;;;12.80;;
5898;SDS011;2975;50.956;6.962;2023-11-21T07:24:46;22.77;;;13.37;;
5898;SDS011;2975;50.956;6.962;2023-11-21T07:27:14;25.70;;;14.87;;
5898;SDS011;2975;50.956;6.962;2023-11-21T07:29:40;23.20;;;12.90;;
5898;SDS011;2975;50.956;6.962;2023-11-21T07:32:05;28.27;;;13.43;;
5898;SDS011;2975;50.956;6.962;2023-11-21T07:34:31;26.03;;;13.07;;
5898;SDS011;2975;50.956;6.962;2023-11-21T07:36:57;30.27;;;14.70;;
5898;SDS011;2975;50.956;6.962;2023-11-21T07:39:22;24.87;;;13.63;;
5898;SDS011;2975;50.956;6.962;2023-11-21T07:41:48;25.03;;;13.57;;
5898;SDS011;2975;50.956;6.962;2023-11-21T07:44:15;28.03;;;13.80;;
5898;SDS011;2975;50.956;6.962;2023-11-21T07:46:42;27.73;;;14.57;;
5898;SDS011;2975;50.956;6.962;2023-11-21T07:49:07;25.87;;;14.10;;
5898;SDS011;2975;50.956;6.962;2023-11-21T07:51:34;22.43;;;12.67;;
5898;SDS011;2975;50.956;6.962;2023-11-21T07:53:59;25.33;;;13.47;;
5898;SDS011;2975;50.956;6.962;2023-11-21T07:56:25;28.20;;;14.47;;
5898;SDS011;2975;50.956;6.962;2023-11-21T07:58:51;25.57;;;13.90;;
5898;SDS011;2975;50.956;6.962;2023-11-21T08:01:17;24.13;;;13.37;;
5898;SDS011;2975;50.956;6.962;2023-11-21T08:03:42;28.93;;;13.83;;
5898;SDS011;2975;50.956;6.962;2023-11-21T08:06:09;24.77;;;13.07;;
5898;SDS011;2975;50.956;6.962;2023-11-21T08:08:34;23.33;;;13.50;;
5898;SDS011;2975;50.956;6.962;2023-11-21T08:11:00;25.27;;;13.77;;
5898;SDS011;2975;50.956;6.962;2023-11-21T08:13:27;23.57;;;13.33;;
5898;SDS011;2975;50.956;6.962;2023-11-21T08:15:54;28.03;;;13.80;;
5898;SDS011;2975;50.956;6.962;2023-11-21T08:18:20;28.73;;;14.67;;
5898;SDS011;2975;50.956;6.962;2023-11-21T08:20:46;29.53;;;14.17;;
5898;SDS011;2975;50.956;6.962;2023-11-21T08:23:15;30.23;;;13.60;;
5898;SDS011;2975;50.956;6.962;2023-11-21T08:25:44;27.30;;;13.50;;
5898;SDS011;2975;50.956;6.962;2023-11-21T08:28:10;34.33;;;14.03;;
5898;SDS011;2975;50.956;6.962;2023-11-21T08:30:35;25.77;;;12.87;;
5898;SDS011;2975;50.956;6.962;2023-11-21T08:33:01;31.03;;;14.40;;
5898;SDS011;2975;50.956;6.962;2023-11-21T08:35:28;28.80;;;13.97;;
5898;SDS011;2975;50.956;6.962;2023-11-21T08:37:54;27.87;;;13.97;;
5898;SDS011;2975;50.956;6.962;2023-11-21T08:40:20;27.90;;;13.23;;
5898;SDS011;2975;50.956;6.962;2023-11-21T08:42:47;29.70;;;14.50;;
5898;SDS011;2975;50.956;6.962;2023-11-21T08:45:13;30.83;;;14.53;;
5898;SDS011;2975;50.956;6.962;2023-11-21T08:47:42;29.57;;;15.60;;
5898;SDS011;2975;50.956;6.962;2023-11-21T08:50:09;30.07;;;15.00;;
5898;SDS011;2975;50.956;6.962;2023-11-21T08:52:37;33.80;;;15.03;;
5898;SDS011;2975;50.956;6.962;2023-11-21T08:55:06;33.03;;;14.43;;
5898;SDS011;2975;50.956;6.962;2023-11-21T08:57:36;32.17;;;14.87;;
5898;SDS011;2975;50.956;6.962;2023-11-21T09:00:05;31.80;;;15.00;;
5898;SDS011;2975;50.956;6.962;2023-11-21T09:02:35;28.40;;;14.93;;
5898;SDS011;2975;50.956;6.962;2023-11-21T09:05:02;32.57;;;14.70;;
5898;SDS011;2975;50.956;6.962;2023-11-21T09:07:29;33.33;;;15.10;;
5898;SDS011;2975;50.956;6.962;2023-11-21T09:09:54;31.43;;;16.37;;
5898;SDS011;2975;50.956;6.962;2023-11-21T09:12:20;30.10;;;15.87;;
5898;SDS011;2975;50.956;6.962;2023-11-21T09:14:46;28.57;;;15.73;;
5898;SDS011;2975;50.956;6.962;2023-11-21T09:17:12;31.60;;;15.33;;
5898;SDS011;2975;50.956;6.962;2023-11-21T09:19:39;27.07;;;14.10;;
5898;SDS011;2975;50.956;6.962;2023-11-21T09:22:05;30.70;;;15.67;;
5898;SDS011;2975;50.956;6.962;2023-11-21T09:24:32;29.90;;;14.97;;
5898;SDS011;2975;50.956;6.962;2023-11-21T09:26:58;28.20;;;14.70;;
5898;SDS011;2975;50.956;6.962;2023-11-21T09:29:25;30.60;;;15.87;;
5898;SDS011;2975;50.956;6.962;2023-11-21T09:31:54;28.97;;;13.50;;
5898;SDS011;2975;50.956;6.962;2023-11-21T09:34:20;36.63;;;15.73;;
5898;SDS011;2975;50.956;6.962;2023-11-21T09:36:46;32.90;;;15.03;;
5898;SDS011;2975;50.956;6.962;2023-11-21T09:39:12;31.07;;;16.63;;
5898;SDS011;2975;50.956;6.962;2023-11-21T09:44:17;35.57;;;15.00;;
5898;SDS011;2975;50.956;6.962;2023-11-21T09:46:45;36.67;;;16.00;;
5898;SDS011;2975;50.956;6.962;2023-11-21T09:49:17;32.97;;;16.60;;
5898;SDS011;2975;50.956;6.962;2023-11-21T09:51:45;39.83;;;18.23;;
5898;SDS011;2975;50.956;6.962;2023-11-21T09:54:13;37.87;;;17.97;;
5898;SDS011;2975;50.956;6.962;2023-11-21T09:56:42;39.17;;;15.93;;
5898;SDS011;2975;50.956;6.962;2023-11-21T09:59:10;33.63;;;16.73;;
5898;SDS011;2975;50.956;6.962;2023-11-21T10:01:40;35.30;;;17.30;;
5898;SDS011;2975;50.956;6.962;2023-11-21T10:04:07;32.93;;;16.03;;
5898;SDS011;2975;50.956;6.962;2023-11-21T10:06:39;38.90;;;16.50;;
5898;SDS011;2975;50.956;6.962;2023-11-21T10:09:10;33.37;;;16.60;;
5898;SDS011;2975;50.956;6.962;2023-11-21T10:11:41;32.80;;;16.77;;
5898;SDS011;2975;50.956;6.962;2023-11-21T10:14:10;32.10;;;15.13;;
5898;SDS011;2975;50.956;6.962;2023-11-21T10:16:37;35.10;;;16.03;;
5898;SDS011;2975;50.956;6.962;2023-11-21T10:19:04;35.00;;;14.30;;
5898;SDS011;2975;50.956;6.962;2023-11-21T10:21:32;33.53;;;15.30;;
5898;SDS011;2975;50.956;6.962;2023-11-21T10:23:58;29.53;;;15.17;;
5898;SDS011;2975;50.956;6.962;2023-11-21T10:26:24;31.37;;;16.03;;
5898;SDS011;2975;50.956;6.962;2023-11-21T10:28:57;34.60;;;16.73;;
5898;SDS011;2975;50.956;6.962;2023-11-21T10:31:24;31.37;;;16.20;;
5898;SDS011;2975;50.956;6.962;2023-11-21T10:33:52;33.33;;;16.87;;
5898;SDS011;2975;50.956;6.962;2023-11-21T10:36:24;28.53;;;15.33;;
5898;SDS011;2975;50.956;6.962;2023-11-21T10:38:53;33.50;;;16.20;;
5898;SDS011;2975;50.956;6.962;2023-11-21T10:41:19;27.97;;;15.60;;
5898;SDS011;2975;50.956;6.962;2023-11-21T10:43:46;33.60;;;16.83;;
5898;SDS011;2975;50.956;6.962;2023-11-21T10:46:11;37.83;;;17.43;;
5898;SDS011;2975;50.956;6.962;2023-11-21T10:48:38;37.80;;;16.77;;
5898;SDS011;2975;50.956;6.962;2023-11-21T10:51:09;32.37;;;16.63;;
5898;SDS011;2975;50.956;6.962;2023-11-21T10:53:38;34.47;;;15.33;;
5898;SDS011;2975;50.956;6.962;2023-11-21T10:56:06;33.77;;;16.70;;
5898;SDS011;2975;50.956;6.962;2023-11-21T10:58:36;34.87;;;16.50;;
5898;SDS011;2975;50.956;6.962;2023-11-21T11:01:03;37.47;;;16.40;;
5898;SDS011;2975;50.956;6.962;2023-11-21T11:03:31;37.67;;;17.13;;
5898;SDS011;2975;50.956;6.962;2023-11-21T11:05:58;43.57;;;18.60;;
5898;SDS011;2975;50.956;6.962;2023-11-21T11:08:25;38.63;;;17.07;;
5898;SDS011;2975;50.956;6.962;2023-11-21T11:10:52;36.13;;;17.50;;
5898;SDS011;2975;50.956;6.962;2023-11-21T11:13:18;36.40;;;17.40;;
5898;SDS011;2975;50.956;6.962;2023-11-21T11:15:46;36.60;;;17.47;;
5898;SDS011;2975;50.956;6.962;2023-11-21T11:18:13;42.13;;;17.57;;
5898;SDS011;2975;50.956;6.962;2023-11-21T11:20:40;37.50;;;18.20;;
5898;SDS011;2975;50.956;6.962;2023-11-21T11:26:20;37.87;;;16.70;;
5898;SDS011;2975;50.956;6.962;2023-11-21T11:29:01;37.50;;;17.63;;
5898;SDS011;2975;50.956;6.962;2023-11-21T11:34:30;33.87;;;17.47;;
5898;SDS011;2975;50.956;6.962;2023-11-21T11:37:03;33.80;;;16.13;;
5898;SDS011;2975;50.956;6.962;2023-11-21T11:39:31;38.47;;;17.27;;
5898;SDS011;2975;50.956;6.962;2023-11-21T11:42:10;38.93;;;16.27;;
5898;SDS011;2975;50.956;6.962;2023-11-21T11:47:26;39.13;;;17.17;;
5898;SDS011;2975;50.956;6.962;2023-11-21T11:50:07;35.10;;;16.90;;
5898;SDS011;2975;50.956;6.962;2023-11-21T11:52:51;32.47;;;15.53;;
5898;SDS011;2975;50.956;6.962;2023-11-21T11:55:21;31.33;;;14.73;;
5898;SDS011;2975;50.956;6.962;2023-11-21T11:57:48;31.90;;;14.00;;
5898;SDS011;2975;50.956;6.962;2023-11-21T12:02:53;31.17;;;14.77;;
5898;SDS011;2975;50.956;6.962;2023-11-21T12:05:22;34.10;;;15.50;;
5898;SDS011;2975;50.956;6.962;2023-11-21T12:07:52;33.43;;;15.00;;
5898;SDS011;2975;50.956;6.962;2023-11-21T12:10:22;30.87;;;14.83;;
5898;SDS011;2975;50.956;6.962;2023-11-21T12:12:54;36.03;;;16.73;;
5898;SDS011;2975;50.956;6.962;2023-11-21T12:15:20;33.93;;;15.40;;
5898;SDS011;2975;50.956;6.962;2023-11-21T12:17:47;38.03;;;16.17;;
5898;SDS011;2975;50.956;6.962;2023-11-21T12:20:14;38.00;;;16.37;;
5898;SDS011;2975;50.956;6.962;2023-11-21T12:22:43;36.90;;;18.33;;
5898;SDS011;2975;50.956;6.962;2023-11-21T12:25:08;34.87;;;15.30;;
5898;SDS011;2975;50.956;6.962;2023-11-21T12:27:34;36.97;;;17.27;;
5898;SDS011;2975;50.956;6.962;2023-11-21T12:30:00;31.67;;;15.43;;
5898;SDS011;2975;50.956;6.962;2023-11-21T12:32:26;40.10;;;16.57;;
5898;SDS011;2975;50.956;6.962;2023-11-21T12:34:51;42.93;;;17.13;;
5898;SDS011;2975;50.956;6.962;2023-11-21T12:37:18;39.53;;;17.60;;
5898;SDS011;2975;50.956;6.962;2023-11-21T12:39:43;34.33;;;15.87;;
5898;SDS011;2975;50.956;6.962;2023-11-21T12:42:09;28.87;;;12.90;;
5898;SDS011;2975;50.956;6.962;2023-11-21T12:44:35;27.27;;;13.83;;
5898;SDS011;2975;50.956;6.962;2023-11-21T12:47:02;32.93;;;13.40;;
5898;SDS011;2975;50.956;6.962;2023-11-21T12:49:28;33.60;;;15.83;;
5898;SDS011;2975;50.956;6.962;2023-11-21T12:51:54;32.00;;;14.83;;
5898;SDS011;2975;50.956;6.962;2023-11-21T12:54:19;28.87;;;13.73;;
5898;SDS011;2975;50.956;6.962;2023-11-21T12:56:45;29.10;;;14.73;;
5898;SDS011;2975;50.956;6.962;2023-11-21T12:59:14;32.30;;;14.20;;
5898;SDS011;2975;50.956;6.962;2023-11-21T13:01:42;30.17;;;14.73;;
5898;SDS011;2975;50.956;6.962;2023-11-21T13:04:07;27.87;;;13.33;;
5898;SDS011;2975;50.956;6.962;2023-11-21T13:06:36;30.57;;;15.87;;
5898;SDS011;2975;50.956;6.962;2023-11-21T13:09:06;30.23;;;14.57;;
5898;SDS011;2975;50.956;6.962;2023-11-21T13:11:36;29.20;;;14.17;;
5898;SDS011;2975;50.956;6.962;2023-11-21T13:14:02;32.90;;;15.53;;
5898;SDS011;2975;50.956;6.962;2023-11-21T13:16:28;35.57;;;14.70;;
5898;SDS011;2975;50.956;6.962;2023-11-21T13:18:55;32.70;;;16.43;;
5898;SDS011;2975;50.956;6.962;2023-11-21T13:21:20;32.50;;;15.53;;
5898;SDS011;2975;50.956;6.962;2023-11-21T13:23:47;39.77;;;17.40;;
5898;SDS011;2975;50.956;6.962;2023-11-21T13:26:15;25.13;;;14.50;;
5898;SDS011;2975;50.956;6.962;2023-11-21T13:28:41;29.70;;;15.73;;
5898;SDS011;2975;50.956;6.962;2023-11-21T13:31:11;29.57;;;16.03;;
5898;SDS011;2975;50.956;6.962;2023-11-21T13:33:47;33.10;;;14.10;;
5898;SDS011;2975;50.956;6.962;2023-11-21T13:36:33;31.00;;;14.13;;
5898;SDS011;2975;50.956;6.962;2023-11-21T13:39:00;29.93;;;14.47;;
5898;SDS011;2975;50.956;6.962;2023-11-21T13:41:32;31.07;;;14.33;;
5898;SDS011;2975;50.956;6.962;2023-11-21T13:43:58;30.47;;;15.37;;
5898;SDS011;2975;50.956;6.962;2023-11-21T13:46:37;30.60;;;15.57;;
5898;SDS011;2975;50.956;6.962;2023-11-21T13:49:03;33.50;;;15.37;;
5898;SDS011;2975;50.956;6.962;2023-11-21T13:51:33;33.07;;;15.77;;
5898;SDS011;2975;50.956;6.962;2023-11-21T13:54:05;35.13;;;16.77;;
5898;SDS011;2975;50.956;6.962;2023-11-21T13:56:34;37.87;;;15.63;;
5898;SDS011;2975;50.956;6.962;2023-11-21T13:59:00;31.50;;;15.30;;
5898;SDS011;2975;50.956;6.962;2023-11-21T14:01:34;35.87;;;16.00;;
5898;SDS011;2975;50.956;6.962;2023-11-21T14:04:18;33.43;;;16.40;;
5898;SDS011;2975;50.956;6.962;2023-11-21T14:06:46;35.80;;;16.30;;
5898;SDS011;2975;50.956;6.962;2023-11-21T14:09:17;37.50;;;17.10;;
5898;SDS011;2975;50.956;6.962;2023-11-21T14:11:58;41.20;;;19.13;;
5898;SDS011;2975;50.956;6.962;2023-11-21T14:14:26;40.30;;;17.93;;
5898;SDS011;2975;50.956;6.962;2023-11-21T14:16:53;43.50;;;17.47;;
5898;SDS011;2975;50.956;6.962;2023-11-21T14:19:20;39.10;;;17.70;;
5898;SDS011;2975;50.956;6.962;2023-11-21T14:21:47;40.33;;;17.87;;
5898;SDS011;2975;50.956;6.962;2023-11-21T14:24:15;36.23;;;16.60;;
5898;SDS011;2975;50.956;6.962;2023-11-21T14:26:44;38.40;;;18.47;;
5898;SDS011;2975;50.956;6.962;2023-11-21T14:29:12;42.47;;;18.33;;
5898;SDS011;2975;50.956;6.962;2023-11-21T14:31:41;41.60;;;18.33;;
5898;SDS011;2975;50.956;6.962;2023-11-21T14:34:08;40.17;;;19.23;;
5898;SDS011;2975;50.956;6.962;2023-11-21T14:36:35;40.87;;;18.97;;
5898;SDS011;2975;50.956;6.962;2023-11-21T14:39:08;42.80;;;19.40;;
5898;SDS011;2975;50.956;6.962;2023-11-21T14:41:45;41.10;;;18.80;;
5898;SDS011;2975;50.956;6.962;2023-11-21T14:44:11;46.37;;;18.80;;
5898;SDS011;2975;50.956;6.962;2023-11-21T14:46:37;45.37;;;18.93;;
5898;SDS011;2975;50.956;6.962;2023-11-21T14:49:04;41.87;;;19.50;;
5898;SDS011;2975;50.956;6.962;2023-11-21T14:51:49;41.37;;;18.23;;
5898;SDS011;2975;50.956;6.962;2023-11-21T14:54:29;45.67;;;18.53;;
5898;SDS011;2975;50.956;6.962;2023-11-21T14:57:16;41.07;;;18.27;;
5898;SDS011;2975;50.956;6.962;2023-11-21T14:59:46;42.27;;;17.90;;
5898;SDS011;2975;50.956;6.962;2023-11-21T15:02:16;46.17;;;18.30;;
5898;SDS011;2975;50.956;6.962;2023-11-21T15:05:07;42.30;;;17.43;;
5898;SDS011;2975;50.956;6.962;2023-11-21T15:07:39;40.13;;;17.97;;